createdAt,value
2023-02-12T00:01:12.827Z,38.91
2023-02-12T00:03:57.806Z,39.12
2023-02-12T00:06:43.002Z,40.24
2023-02-12T00:09:27.843Z,39.87
2023-02-12T00:12:12.879Z,39.75
2023-02-12T00:14:58.320Z,38.69
2023-02-12T00:17:43.117Z,39.47
2023-02-12T00:20:28.007Z,38.08
2023-02-12T00:23:13.006Z,38.93
2023-02-12T00:25:57.908Z,38.45
2023-02-12T00:28:43.083Z,37.90
2023-02-12T00:31:28.238Z,37.74
2023-02-12T00:34:13.466Z,37.62
2023-02-12T00:36:58.266Z,37.59
2023-02-12T00:39:43.223Z,37.19
2023-02-12T00:42:28.153Z,37.02
2023-02-12T00:45:13.204Z,37.58
2023-02-12T00:47:58.016Z,37.69
2023-02-12T00:50:42.834Z,37.11
2023-02-12T00:53:27.746Z,38.08
2023-02-12T00:56:12.585Z,37.84
2023-02-12T00:58:57.356Z,37.52
2023-02-12T01:01:42.253Z,36.76
2023-02-12T01:04:27.691Z,37.02
2023-02-12T01:07:12.646Z,37.17
2023-02-12T01:09:57.703Z,37.19
2023-02-12T01:12:42.561Z,36.31
2023-02-12T01:15:27.463Z,36.45
2023-02-12T01:18:12.152Z,37.23
2023-02-12T01:20:57.031Z,36.51
2023-02-12T01:23:41.870Z,36.86
2023-02-12T01:26:26.770Z,37.99
2023-02-12T01:29:11.672Z,36.63
2023-02-12T01:31:56.604Z,37.57
2023-02-12T01:34:42.015Z,36.84
2023-02-12T01:37:26.736Z,38.56
2023-02-12T01:40:11.616Z,36.84
2023-02-12T01:42:56.446Z,38.13
2023-02-12T01:45:41.388Z,37.18
2023-02-12T01:48:26.277Z,38.57
2023-02-12T01:51:11.193Z,39.34
2023-02-12T01:53:56.096Z,37.75
2023-02-12T01:56:41.044Z,37.84
2023-02-12T01:59:25.895Z,37.81
2023-02-12T02:02:10.653Z,39.43
2023-02-12T02:04:55.545Z,38.91
2023-02-12T02:07:40.275Z,38.24
2023-02-12T02:10:25.215Z,38.45
2023-02-12T02:13:10.121Z,38.34
2023-02-12T02:15:55.375Z,40.20
2023-02-12T02:18:40.323Z,39.52
2023-02-12T02:21:25.122Z,38.32
2023-02-12T02:24:10.194Z,39.08
2023-02-12T02:26:55.047Z,39.24
2023-02-12T02:29:40.005Z,39.63
2023-02-12T02:32:24.920Z,38.19
2023-02-12T02:35:09.952Z,39.95
2023-02-12T02:37:54.941Z,40.28
2023-02-12T02:40:39.716Z,39.98
2023-02-12T02:43:24.746Z,40.56
2023-02-12T02:46:09.600Z,39.00
2023-02-12T02:48:54.529Z,37.83
2023-02-12T02:51:39.363Z,37.88
2023-02-12T02:54:24.230Z,36.99
2023-02-12T02:57:09.030Z,37.74
2023-02-12T02:59:53.916Z,36.76
2023-02-12T03:02:38.798Z,36.96
2023-02-12T03:05:23.711Z,37.66
2023-02-12T03:08:08.405Z,37.54
2023-02-12T03:10:53.150Z,38.16
2023-02-12T03:13:38.180Z,37.25
2023-02-12T03:16:22.976Z,35.68
2023-02-12T03:19:07.967Z,37.52
2023-02-12T03:21:52.855Z,38.47
2023-02-12T03:24:37.847Z,38.27
2023-02-12T03:27:22.802Z,39.08
2023-02-12T03:30:07.651Z,38.92
2023-02-12T03:32:52.629Z,38.80
2023-02-12T03:35:37.407Z,38.75
2023-02-12T03:38:22.387Z,37.39
2023-02-12T03:41:07.117Z,38.36
2023-02-12T03:43:51.901Z,38.54
2023-02-12T03:46:36.753Z,38.29
2023-02-12T03:49:21.630Z,39.84
2023-02-12T03:52:06.526Z,40.57
2023-02-12T03:54:51.499Z,41.28
2023-02-12T03:57:36.441Z,39.67
2023-02-12T04:00:21.268Z,39.90
2023-02-12T04:03:06.317Z,39.16
2023-02-12T04:05:51.268Z,38.39
2023-02-12T04:08:36.302Z,38.82
2023-02-12T04:11:21.113Z,38.80
2023-02-12T04:14:05.882Z,38.68
2023-02-12T04:16:50.788Z,39.12
2023-02-12T04:19:35.584Z,39.26
2023-02-12T04:22:20.401Z,39.48
2023-02-12T04:25:05.244Z,40.69
2023-02-12T04:27:50.200Z,40.50
2023-02-12T04:30:35.049Z,42.95
2023-02-12T04:33:19.936Z,43.48
2023-02-12T04:36:04.771Z,42.83
2023-02-12T04:38:49.596Z,44.34
2023-02-12T04:41:34.440Z,43.57
2023-02-12T04:44:19.338Z,43.59
2023-02-12T04:47:04.280Z,44.65
2023-02-12T04:49:49.115Z,44.41
2023-02-12T04:52:34.058Z,44.00
2023-02-12T04:55:18.827Z,44.57
2023-02-12T04:58:03.630Z,44.29
2023-02-12T05:00:48.517Z,44.64
2023-02-12T05:03:33.679Z,46.13
2023-02-12T05:06:18.425Z,44.70
2023-02-12T05:09:03.410Z,44.87
2023-02-12T05:11:48.326Z,46.07
2023-02-12T05:14:33.317Z,45.11
2023-02-12T05:17:18.347Z,46.07
2023-02-12T05:20:03.234Z,44.54
2023-02-12T05:22:48.292Z,44.30
2023-02-12T05:25:33.220Z,46.16
2023-02-12T05:28:18.583Z,45.12
2023-02-12T05:31:03.623Z,45.36
2023-02-12T05:33:48.872Z,45.48
2023-02-12T05:36:33.872Z,44.26
2023-02-12T05:39:18.613Z,46.55
2023-02-12T05:42:03.620Z,45.02
2023-02-12T05:44:48.451Z,45.11
2023-02-12T05:47:33.387Z,44.99
2023-02-12T05:50:18.120Z,46.07
2023-02-12T05:53:03.174Z,44.30
2023-02-12T05:55:47.963Z,44.56
2023-02-12T05:58:32.852Z,45.73
2023-02-12T06:01:17.682Z,46.54
2023-02-12T06:04:02.648Z,44.74
2023-02-12T06:06:49.135Z,45.72
2023-02-12T06:09:34.175Z,44.16
2023-02-12T06:12:19.137Z,46.26
2023-02-12T06:15:03.968Z,45.73
2023-02-12T06:17:48.889Z,45.71
2023-02-12T06:20:33.849Z,47.52
2023-02-12T06:23:18.750Z,46.01
2023-02-12T06:26:03.648Z,46.75
2023-02-12T06:28:48.497Z,47.23
2023-02-12T06:31:33.420Z,47.04
2023-02-12T06:34:18.559Z,47.36
2023-02-12T06:37:03.589Z,47.30
2023-02-12T06:39:48.441Z,47.61
2023-02-12T06:42:33.305Z,46.87
2023-02-12T06:45:18.161Z,47.04
2023-02-12T06:48:02.994Z,47.94
2023-02-12T06:50:47.898Z,47.69
2023-02-12T06:53:32.718Z,48.40
2023-02-12T06:56:17.734Z,47.48
2023-02-12T06:59:02.620Z,47.80
2023-02-12T07:01:47.481Z,47.03
2023-02-12T07:04:32.382Z,48.76
2023-02-12T07:07:17.231Z,48.83
2023-02-12T07:10:02.282Z,47.94
2023-02-12T07:12:47.142Z,48.70
2023-02-12T07:15:32.189Z,47.07
2023-02-12T07:18:17.096Z,46.93
2023-02-12T07:21:01.944Z,46.70
2023-02-12T07:23:49.095Z,48.03
2023-02-12T07:26:35.583Z,48.13
2023-02-12T07:29:20.519Z,46.98
2023-02-12T07:32:05.466Z,47.35
2023-02-12T07:34:50.319Z,47.30
2023-02-12T07:37:35.152Z,46.91
2023-02-12T07:40:20.182Z,46.40
2023-02-12T07:43:05.142Z,47.57
2023-02-12T07:45:50.117Z,46.73
2023-02-12T07:48:34.990Z,46.21
2023-02-12T07:51:19.964Z,47.84
2023-02-12T07:54:05.083Z,47.91
2023-02-12T07:56:50.015Z,47.55
2023-02-12T07:59:34.921Z,48.18
2023-02-12T08:02:19.687Z,48.76
2023-02-12T08:05:04.693Z,48.28
2023-02-12T08:07:49.544Z,49.10
2023-02-12T08:10:34.452Z,48.97
2023-02-12T08:13:19.421Z,47.89
2023-02-12T08:16:04.322Z,48.17
2023-02-12T08:18:49.255Z,48.74
2023-02-12T08:21:34.108Z,47.52
2023-02-12T08:24:19.170Z,46.17
2023-02-12T08:27:03.976Z,46.09
2023-02-12T08:29:48.829Z,44.56
2023-02-12T08:32:33.806Z,44.48
2023-02-12T08:35:18.608Z,44.31
2023-02-12T08:38:03.576Z,44.42
2023-02-12T08:40:48.634Z,45.11
2023-02-12T08:43:33.477Z,44.43
2023-02-12T08:46:18.348Z,44.88
2023-02-12T08:49:03.275Z,43.41
2023-02-12T08:51:48.121Z,43.49
2023-02-12T08:54:33.031Z,43.05
2023-02-12T08:57:17.972Z,43.21
2023-02-12T09:00:02.734Z,44.76
2023-02-12T09:02:47.739Z,43.36
2023-02-12T09:05:32.488Z,44.24
2023-02-12T09:08:17.461Z,43.82
2023-02-12T09:11:02.306Z,43.88
2023-02-12T09:13:47.103Z,45.39
2023-02-12T09:16:31.884Z,45.84
2023-02-12T09:19:16.799Z,46.34
2023-02-12T09:22:01.606Z,45.32
2023-02-12T09:24:46.482Z,46.23
2023-02-12T09:27:31.536Z,44.81
2023-02-12T09:30:16.325Z,44.59
2023-02-12T09:33:01.386Z,46.35
2023-02-12T09:35:46.326Z,46.26
2023-02-12T09:38:31.262Z,45.34
2023-02-12T09:41:16.119Z,46.12
2023-02-12T09:44:01.029Z,45.91
2023-02-12T09:46:45.927Z,46.22
2023-02-12T09:49:31.349Z,46.75
2023-02-12T09:52:16.150Z,45.07
2023-02-12T09:55:00.900Z,46.52
2023-02-12T09:57:45.705Z,45.44
2023-02-12T10:00:30.615Z,45.54
2023-02-12T10:03:15.499Z,46.22
2023-02-12T10:06:00.274Z,45.98
2023-02-12T10:08:45.073Z,45.12
2023-02-12T10:11:29.993Z,46.26
2023-02-12T10:14:15.007Z,45.64
2023-02-12T10:16:59.991Z,46.41
2023-02-12T10:19:45.029Z,46.93
2023-02-12T10:22:29.966Z,45.56
2023-02-12T10:25:14.736Z,46.33
2023-02-12T10:27:59.709Z,47.40
2023-02-12T10:30:44.644Z,46.96
2023-02-12T10:33:29.568Z,47.42
2023-02-12T10:36:14.303Z,47.89
2023-02-12T10:38:59.140Z,45.90
2023-02-12T10:41:44.046Z,47.23
2023-02-12T10:44:28.889Z,46.51
2023-02-12T10:47:13.880Z,46.35
2023-02-12T10:49:58.580Z,46.19
2023-02-12T10:52:43.593Z,47.52
2023-02-12T10:55:28.520Z,47.03
2023-02-12T10:58:13.504Z,46.46
2023-02-12T11:00:58.407Z,45.89
2023-02-12T11:03:43.307Z,45.98
2023-02-12T11:06:28.240Z,44.77
2023-02-12T11:09:13.023Z,46.02
2023-02-12T11:11:57.830Z,46.26
2023-02-12T11:14:42.593Z,45.09
2023-02-12T11:17:27.569Z,45.11
2023-02-12T11:20:12.455Z,46.14
2023-02-12T11:22:57.566Z,45.11
2023-02-12T11:25:42.496Z,45.88
2023-02-12T11:28:27.399Z,46.58
2023-02-12T11:31:12.823Z,45.76
2023-02-12T11:33:57.645Z,46.59
2023-02-12T11:36:42.599Z,44.91
2023-02-12T11:39:27.446Z,45.23
2023-02-12T11:42:12.298Z,44.67
2023-02-12T11:44:57.126Z,44.61
2023-02-12T11:47:42.145Z,44.91
2023-02-12T11:50:27.014Z,45.65
2023-02-12T11:53:11.912Z,44.44
2023-02-12T11:55:56.766Z,44.81
2023-02-12T11:58:41.507Z,43.80
2023-02-12T12:01:26.479Z,44.74
2023-02-12T12:04:11.388Z,43.11
2023-02-12T12:06:56.328Z,44.61
2023-02-12T12:09:41.298Z,44.86
2023-02-12T12:12:26.219Z,45.15
2023-02-12T12:15:11.058Z,45.15
2023-02-12T12:17:56.188Z,44.86
2023-02-12T12:20:41.069Z,46.25
2023-02-12T12:23:26.002Z,45.43
2023-02-12T12:26:10.912Z,44.73
2023-02-12T12:28:55.766Z,44.11
2023-02-12T12:31:40.779Z,44.07
2023-02-12T12:34:25.672Z,43.10
2023-02-12T12:37:10.619Z,42.46
2023-02-12T12:39:55.522Z,44.09
2023-02-12T12:42:40.537Z,44.07
2023-02-12T12:45:25.409Z,45.17
2023-02-12T12:48:10.180Z,44.52
2023-02-12T12:50:55.246Z,44.46
2023-02-12T12:53:40.199Z,43.90
2023-02-12T12:56:25.583Z,42.19
2023-02-12T12:59:10.375Z,43.08
2023-02-12T13:01:55.313Z,42.77
2023-02-12T13:04:40.163Z,42.85
2023-02-12T13:07:24.967Z,42.88
2023-02-12T13:10:09.836Z,43.56
2023-02-12T13:12:54.695Z,44.21
2023-02-12T13:15:39.883Z,42.68
2023-02-12T13:18:24.595Z,41.92
2023-02-12T13:21:09.533Z,42.94
2023-02-12T13:23:54.435Z,43.71
2023-02-12T13:26:39.428Z,43.27
2023-02-12T13:29:24.191Z,43.08
2023-02-12T13:32:09.315Z,44.32
2023-02-12T13:34:54.722Z,42.72
2023-02-12T13:37:39.628Z,42.52
2023-02-12T13:40:24.484Z,43.16
2023-02-12T13:43:09.430Z,41.42
2023-02-12T13:45:54.668Z,42.55
2023-02-12T13:48:39.772Z,41.33
2023-02-12T13:51:24.632Z,42.81
2023-02-12T13:54:09.522Z,43.09
2023-02-12T13:56:54.337Z,42.24
2023-02-12T13:59:39.251Z,42.55
2023-02-12T14:02:24.149Z,43.14
2023-02-12T14:05:09.136Z,42.97
2023-02-12T14:07:53.941Z,42.13
2023-02-12T14:10:38.775Z,41.23
2023-02-12T14:13:23.513Z,41.94
2023-02-12T14:16:08.421Z,43.45
2023-02-12T14:18:53.210Z,42.05
2023-02-12T14:21:38.211Z,41.21
2023-02-12T14:24:23.164Z,41.23
2023-02-12T14:27:08.025Z,40.22
2023-02-12T14:29:52.874Z,39.51
2023-02-12T14:32:37.611Z,40.33
2023-02-12T14:35:22.563Z,41.00
2023-02-12T14:38:07.407Z,39.31
2023-02-12T14:40:52.305Z,41.45
2023-02-12T14:43:37.124Z,40.51
2023-02-12T14:46:22.171Z,41.60
2023-02-12T14:49:07.105Z,40.13
2023-02-12T14:51:51.996Z,39.88
2023-02-12T14:54:37.070Z,42.28
2023-02-12T14:57:21.863Z,41.09
2023-02-12T15:00:06.758Z,40.95
2023-02-12T15:02:51.557Z,40.58
2023-02-12T15:05:36.297Z,41.53
2023-02-12T15:08:21.218Z,42.33
2023-02-12T15:11:06.197Z,42.10
2023-02-12T15:13:51.158Z,44.08
2023-02-12T15:16:35.990Z,44.61
2023-02-12T15:19:21.009Z,45.24
2023-02-12T15:22:05.924Z,44.86
2023-02-12T15:24:50.924Z,46.70
2023-02-12T15:27:35.762Z,46.54
2023-02-12T15:30:26.399Z,46.77
2023-02-12T15:33:13.628Z,47.47
2023-02-12T15:35:59.844Z,45.77
2023-02-12T15:38:44.908Z,46.37
2023-02-12T15:41:29.934Z,46.31
2023-02-12T15:44:15.196Z,47.34
2023-02-12T15:47:00.168Z,46.44
2023-02-12T15:49:44.902Z,46.40
2023-02-12T15:52:29.837Z,47.69
2023-02-12T15:55:14.714Z,47.46
2023-02-12T15:57:59.660Z,47.48
2023-02-12T16:00:44.570Z,47.06
2023-02-12T16:03:29.350Z,46.45
2023-02-12T16:06:14.354Z,49.00
2023-02-12T16:08:59.169Z,45.46
2023-02-12T16:11:44.038Z,46.88
2023-02-12T16:14:28.816Z,44.72
2023-02-12T16:17:13.655Z,44.91
2023-02-12T16:19:58.566Z,46.54
2023-02-12T16:22:43.491Z,45.86
2023-02-12T16:25:28.393Z,46.31
2023-02-12T16:28:13.285Z,46.29
2023-02-12T16:30:58.323Z,45.80
2023-02-12T16:33:43.008Z,46.58
2023-02-12T16:36:27.916Z,45.70
2023-02-12T16:39:12.529Z,44.59
2023-02-12T16:41:57.474Z,44.25
2023-02-12T16:44:42.332Z,45.26
2023-02-12T16:47:27.270Z,45.81
2023-02-12T16:50:12.300Z,46.33
2023-02-12T16:52:57.162Z,46.19
2023-02-12T16:55:42.136Z,46.63
2023-02-12T16:58:26.952Z,45.97
2023-02-12T17:01:11.917Z,47.82
2023-02-12T17:03:56.650Z,47.36
2023-02-12T17:06:41.618Z,47.33
2023-02-12T17:09:26.606Z,47.54
2023-02-12T17:12:11.530Z,48.76
2023-02-12T17:14:56.460Z,48.54
2023-02-12T17:17:41.246Z,48.15
2023-02-12T17:20:26.167Z,48.10
2023-02-12T17:23:11.059Z,48.48
2023-02-12T17:25:56.172Z,49.12
2023-02-12T17:28:41.181Z,52.32
2023-02-12T17:31:26.335Z,51.98
2023-02-12T17:34:11.156Z,53.99
2023-02-12T17:36:55.986Z,53.59
2023-02-12T17:39:41.076Z,53.10
2023-02-12T17:42:25.921Z,52.47
2023-02-12T17:45:10.872Z,52.12
2023-02-12T17:47:55.685Z,53.04
2023-02-12T17:50:40.584Z,51.00
2023-02-12T17:53:25.504Z,52.08
2023-02-12T17:56:10.607Z,53.94
2023-02-12T17:58:55.517Z,53.71
2023-02-12T18:01:40.485Z,54.30
2023-02-12T18:04:25.434Z,55.50
2023-02-12T18:07:10.247Z,54.57
2023-02-12T18:09:55.289Z,53.59
2023-02-12T18:12:40.381Z,56.05
2023-02-12T18:15:25.221Z,56.07
2023-02-12T18:18:09.931Z,56.83
2023-02-12T18:20:55.517Z,57.98
2023-02-12T18:23:41.020Z,55.91
2023-02-12T18:26:25.949Z,56.00
2023-02-12T18:29:10.865Z,54.67
2023-02-12T18:31:55.823Z,54.94
2023-02-12T18:34:40.761Z,54.19
2023-02-12T18:37:25.658Z,54.47
2023-02-12T18:40:10.605Z,55.00
2023-02-12T18:42:55.385Z,59.10
2023-02-12T18:45:40.337Z,59.10
2023-02-12T18:48:25.210Z,58.12
2023-02-12T18:51:10.085Z,55.59
2023-02-12T18:53:54.975Z,55.07
2023-02-12T18:56:39.742Z,55.75
2023-02-12T18:59:27.110Z,54.47
2023-02-12T19:02:12.170Z,55.57
2023-02-12T19:04:57.136Z,54.71
2023-02-12T19:07:41.971Z,54.92
2023-02-12T19:10:26.713Z,55.37
2023-02-12T19:13:11.740Z,55.80
2023-02-12T19:15:56.630Z,56.20
2023-02-12T19:18:41.447Z,54.97
2023-02-12T19:21:26.502Z,56.66
2023-02-12T19:24:11.737Z,55.81
2023-02-12T19:26:56.654Z,57.83
2023-02-12T19:29:41.549Z,58.97
2023-02-12T19:32:26.457Z,58.48
2023-02-12T19:35:11.266Z,57.06
2023-02-12T19:37:56.202Z,56.70
2023-02-12T19:40:41.048Z,56.15
2023-02-12T19:43:26.044Z,58.01
2023-02-12T19:46:10.861Z,56.09
2023-02-12T19:48:55.829Z,55.42
2023-02-12T19:51:40.833Z,57.02
2023-02-12T19:54:25.590Z,56.19
2023-02-12T19:57:12.571Z,56.35
2023-02-12T19:59:58.457Z,55.74
2023-02-12T20:02:44.036Z,56.42
2023-02-12T20:05:29.310Z,55.63
2023-02-12T20:08:14.232Z,54.83
2023-02-12T20:10:59.165Z,54.61
2023-02-12T20:13:43.934Z,53.62
2023-02-12T20:16:28.790Z,52.12
2023-02-12T20:19:13.454Z,50.74
2023-02-12T20:21:58.372Z,50.99
2023-02-12T20:24:43.191Z,50.48
2023-02-12T20:27:28.192Z,52.73
2023-02-12T20:30:13.056Z,49.89
2023-02-12T20:32:57.989Z,51.23
2023-02-12T20:35:42.910Z,50.41
2023-02-12T20:38:27.830Z,49.52
2023-02-12T20:41:12.652Z,47.23
2023-02-12T20:43:57.468Z,47.33
2023-02-12T20:46:42.417Z,48.89
2023-02-12T20:49:27.258Z,47.85
2023-02-12T20:52:12.087Z,47.00
2023-02-12T20:54:56.945Z,47.19
2023-02-12T20:57:41.754Z,46.10
2023-02-12T21:00:26.742Z,47.17
2023-02-12T21:03:11.666Z,45.97
2023-02-12T21:05:56.850Z,46.52
2023-02-12T21:08:41.999Z,46.71
2023-02-12T21:11:26.804Z,46.86
2023-02-12T21:14:21.942Z,46.69
2023-02-12T21:17:07.674Z,46.76
2023-02-12T21:19:52.486Z,45.01
2023-02-12T21:22:37.321Z,45.11
2023-02-12T21:25:22.181Z,44.54
2023-02-12T21:28:07.265Z,45.44
2023-02-12T21:30:52.039Z,44.60
2023-02-12T21:33:36.973Z,43.84
2023-02-12T21:36:22.081Z,44.45
2023-02-12T21:39:06.895Z,45.15
2023-02-12T21:41:51.871Z,44.60
2023-02-12T21:44:36.804Z,44.73
2023-02-12T21:47:21.671Z,44.91
2023-02-12T21:50:06.470Z,44.65
2023-02-12T21:52:51.372Z,45.47
2023-02-12T21:55:36.349Z,45.17
2023-02-12T21:58:21.326Z,44.78
2023-02-12T22:01:06.347Z,44.87
2023-02-12T22:03:51.100Z,44.48
2023-02-12T22:06:35.966Z,45.16
2023-02-12T22:09:20.809Z,43.41
2023-02-12T22:12:05.854Z,44.55
2023-02-12T22:14:50.578Z,44.56
2023-02-12T22:17:35.541Z,44.30
2023-02-12T22:20:20.398Z,44.16
2023-02-12T22:23:05.297Z,44.41
2023-02-12T22:25:50.268Z,43.40
2023-02-12T22:28:35.132Z,43.69
2023-02-12T22:31:20.071Z,43.35
2023-02-12T22:34:05.053Z,43.46
2023-02-12T22:36:49.886Z,43.59
2023-02-12T22:39:34.705Z,42.44
2023-02-12T22:42:19.826Z,44.58
2023-02-12T22:45:04.616Z,43.23
2023-02-12T22:47:49.461Z,42.81
2023-02-12T22:50:34.691Z,42.40
2023-02-12T22:53:20.597Z,42.42
2023-02-12T22:56:05.512Z,41.59
2023-02-12T22:58:50.491Z,42.12
2023-02-12T23:01:35.479Z,42.09
2023-02-12T23:04:20.424Z,41.72
2023-02-12T23:07:05.751Z,42.13
2023-02-12T23:09:50.699Z,41.73
2023-02-12T23:12:35.583Z,41.80
2023-02-12T23:15:20.536Z,41.23
2023-02-12T23:18:05.381Z,41.11
2023-02-12T23:20:50.373Z,41.70
2023-02-12T23:23:35.158Z,40.79
2023-02-12T23:26:20.076Z,41.17
2023-02-12T23:29:04.866Z,41.68
2023-02-12T23:31:49.969Z,41.26
2023-02-12T23:34:34.860Z,40.64
2023-02-12T23:37:19.686Z,41.30
2023-02-12T23:40:04.701Z,41.53
2023-02-12T23:42:49.504Z,41.85
2023-02-12T23:45:34.373Z,41.16
2023-02-12T23:48:19.153Z,41.64
2023-02-12T23:51:03.988Z,43.63
2023-02-12T23:53:48.683Z,43.12
2023-02-12T23:56:33.569Z,43.44
2023-02-12T23:59:18.457Z,43.52
